Aviation Digital Data Service (ADDS)

Output produced by METARs form (1957 UTC 17 November 2019)
found at http://www.aviationweather.gov/metar/data/
 
METAR text: UKKK 171930Z 13003MPS 100V170 6000 OVC008 07/06 Q1027 R08/70D TEMPO 1200 BR OVC003
Conditions at: UKKK (KIEV/ZHYLIANY , UA) observed 1930 UTC 17 November 2019
Temperature: 7.0°C (45°F)
Dewpoint: 6.0°C (43°F) [RH = 93%]
Pressure (altimeter): 30.32 inches Hg (1027.0 mb)
Winds: from the SE (130 degrees) at 7 MPH (6 knots; 3.1 m/s)
Visibility: 4 miles ( 6 km)
Ceiling: 800 feet AGL
Clouds: overcast cloud deck at 800 feet AGL
Weather: no significant weather observed at this time

METAR text: UKKK 171900Z 14004MPS 090V170 6000 OVC007 07/07 Q1027 R08/70D TEMPO 1200 BR OVC003
Conditions at: UKKK (KIEV/ZHYLIANY , UA) observed 1900 UTC 17 November 2019
Temperature: 7.0°C (45°F)
Dewpoint: 7.0°C (45°F) [RH = 100%]
Pressure (altimeter): 30.32 inches Hg (1027.0 mb)
Winds: from the SE (140 degrees) at 9 MPH (8 knots; 4.1 m/s)
Visibility: 4 miles ( 6 km)
Ceiling: 700 feet AGL
Clouds: overcast cloud deck at 700 feet AGL
Weather: no significant weather observed at this time

METAR text: UKKK 171830Z 12004MPS 5000 BR OVC005 07/07 Q1027 R08/70D TEMPO 0300 FG VV001
Conditions at: UKKK (KIEV/ZHYLIANY , UA) observed 1830 UTC 17 November 2019
Temperature: 7.0°C (45°F)
Dewpoint: 7.0°C (45°F) [RH = 100%]
Pressure (altimeter): 30.32 inches Hg (1027.0 mb)
Winds: from the ESE (120 degrees) at 9 MPH (8 knots; 4.1 m/s)
Visibility: 3 miles ( 5 km)
Ceiling: 500 feet AGL
Clouds: overcast cloud deck at 500 feet AGL
Weather: BR  (mist)

METAR text: UKKK 171819Z 12004MPS 090V150 5000 BR OVC005 06/06 Q1027 R08/70D TEMPO 0300 FG VV001
Conditions at: UKKK (KIEV/ZHYLIANY , UA) observed 1819 UTC 17 November 2019
Temperature: 6.0°C (43°F)
Dewpoint: 6.0°C (43°F) [RH = 100%]
Pressure (altimeter): 30.32 inches Hg (1027.0 mb)
Winds: from the ESE (120 degrees) at 9 MPH (8 knots; 4.1 m/s)
Visibility: 3 miles ( 5 km)
Ceiling: 500 feet AGL
Clouds: overcast cloud deck at 500 feet AGL
Weather: BR  (mist)

METAR text: UKKK 171800Z 12003MPS 090V150 0550 0500E R08/0700U FG VV001 06/06 Q1027 R08/CLRD70 TEMPO 0300 FG VV001
Conditions at: UKKK (KIEV/ZHYLIANY , UA) observed 1800 UTC 17 November 2019
Temperature: 6.0°C (43°F)
Dewpoint: 6.0°C (43°F) [RH = 100%]
Pressure (altimeter): 30.32 inches Hg (1027.0 mb)
Winds: from the ESE (120 degrees) at 7 MPH (6 knots; 3.1 m/s)
Visibility: 0.34 miles (0.55 km)
Ceiling: indefinite ceiling with vertical visibility of 100 feet AGL
Clouds: obscured sky
Weather: FG  (fog)

METAR text: UKKK 171730Z 11004MPS 080V140 0450 0400E R08/0500N FG VV001 07/07 Q1027 R08/CLRD70 TEMPO 0300 FG VV001
Conditions at: UKKK (KIEV/ZHYLIANY , UA) observed 1730 UTC 17 November 2019
Temperature: 7.0°C (45°F)
Dewpoint: 7.0°C (45°F) [RH = 100%]
Pressure (altimeter): 30.32 inches Hg (1027.0 mb)
Winds: from the ESE (110 degrees) at 9 MPH (8 knots; 4.1 m/s)
Visibility: 0.28 miles (0.45 km)
Ceiling: indefinite ceiling with vertical visibility of 100 feet AGL
Clouds: obscured sky
Weather: FG  (fog)

METAR text: UKKK 171702Z 13004MPS 0500 0450E R08/0750N FG VV001 07/07 Q1027 R08/CLRD70 TEMPO 0300 FG VV001
Conditions at: UKKK (KIEV/ZHYLIANY , UA) observed 1702 UTC 17 November 2019
Temperature: 7.0°C (45°F)
Dewpoint: 7.0°C (45°F) [RH = 100%]
Pressure (altimeter): 30.32 inches Hg (1027.0 mb)
Winds: from the SE (130 degrees) at 9 MPH (8 knots; 4.1 m/s)
Visibility: 0.31 miles (0.50 km)
Ceiling: indefinite ceiling with vertical visibility of 100 feet AGL
Clouds: obscured sky
Weather: FG  (fog)

METAR text: UKKK 171700Z 13004MPS 0550 0450E R08/0800U FG VV001 07/07 Q1027 R08/CLRD70 TEMPO 0300 FG VV001
Conditions at: UKKK (KIEV/ZHYLIANY , UA) observed 1700 UTC 17 November 2019
Temperature: 7.0°C (45°F)
Dewpoint: 7.0°C (45°F) [RH = 100%]
Pressure (altimeter): 30.32 inches Hg (1027.0 mb)
Winds: from the SE (130 degrees) at 9 MPH (8 knots; 4.1 m/s)
Visibility: 0.34 miles (0.55 km)
Ceiling: indefinite ceiling with vertical visibility of 100 feet AGL
Clouds: obscured sky
Weather: FG  (fog)

METAR text: UKKK 171654Z 13005MPS 100V160 0550 0450E R08/0700N FG VV001 07/07 Q1027 R08/CLRD70 TEMPO 0300 FG VV001
Conditions at: UKKK (KIEV/ZHYLIANY , UA) observed 1654 UTC 17 November 2019
Temperature: 7.0°C (45°F)
Dewpoint: 7.0°C (45°F) [RH = 100%]
Pressure (altimeter): 30.32 inches Hg (1027.0 mb)
Winds: from the SE (130 degrees) at 12 MPH (10 knots; 5.1 m/s)
Visibility: 0.34 miles (0.55 km)
Ceiling: indefinite ceiling with vertical visibility of 100 feet AGL
Clouds: obscured sky
Weather: FG  (fog)

METAR text: UKKK 171632Z 11004MPS 0750 0600E R08/1400N FG OVC001 07/07 Q1027 R08/CLRD70 TEMPO 0300 FG VV001
Conditions at: UKKK (KIEV/ZHYLIANY , UA) observed 1632 UTC 17 November 2019
Temperature: 7.0°C (45°F)
Dewpoint: 7.0°C (45°F) [RH = 100%]
Pressure (altimeter): 30.32 inches Hg (1027.0 mb)
Winds: from the ESE (110 degrees) at 9 MPH (8 knots; 4.1 m/s)
Visibility: 0.47 miles (0.76 km)
Ceiling: 100 feet AGL
Clouds: overcast cloud deck at 100 feet AGL
Weather: FG  (fog)

METAR text: UKKK 171630Z 11004MPS 1000 0600E R08/1400U PRFG OVC001 07/07 Q1027 R08/CLRD70 TEMPO 0300 FG VV001
Conditions at: UKKK (KIEV/ZHYLIANY , UA) observed 1630 UTC 17 November 2019
Temperature: 7.0°C (45°F)
Dewpoint: 7.0°C (45°F) [RH = 100%]
Pressure (altimeter): 30.32 inches Hg (1027.0 mb)
Winds: from the ESE (110 degrees) at 9 MPH (8 knots; 4.1 m/s)
Visibility: 0.62 miles (1.00 km)
Ceiling: 100 feet AGL
Clouds: overcast cloud deck at 100 feet AGL
Weather: PRFG  (partial fog)

METAR text: UKKK 171611Z 10004MPS 1100 0750E R08/1500D PRFG OVC001 07/07 Q1027 R08/CLRD70 TEMPO 0300 FG VV001
Conditions at: UKKK (KIEV/ZHYLIANY , UA) observed 1611 UTC 17 November 2019
Temperature: 7.0°C (45°F)
Dewpoint: 7.0°C (45°F) [RH = 100%]
Pressure (altimeter): 30.32 inches Hg (1027.0 mb)
Winds: from the E (100 degrees) at 9 MPH (8 knots; 4.1 m/s)
Visibility: 0.68 miles (1.09 km)
Ceiling: 100 feet AGL
Clouds: overcast cloud deck at 100 feet AGL
Weather: PRFG  (partial fog)

METAR text: UKKK 171600Z 11004MPS 090V150 2600 BR OVC001 08/07 Q1027 R08/70D TEMPO 0300 FG VV001
Conditions at: UKKK (KIEV/ZHYLIANY , UA) observed 1600 UTC 17 November 2019
Temperature: 8.0°C (46°F)
Dewpoint: 7.0°C (45°F) [RH = 93%]
Pressure (altimeter): 30.32 inches Hg (1027.0 mb)
Winds: from the ESE (110 degrees) at 9 MPH (8 knots; 4.1 m/s)
Visibility: 1.62 miles (2.61 km)
Ceiling: 100 feet AGL
Clouds: overcast cloud deck at 100 feet AGL
Weather: BR  (mist)

METAR text: UKKK 171538Z 11003MPS 4900 BR OVC003 08/08 Q1027 R08/70D TEMPO 1000 BR OVC002
Conditions at: UKKK (KIEV/ZHYLIANY , UA) observed 1538 UTC 17 November 2019
Temperature: 8.0°C (46°F)
Dewpoint: 8.0°C (46°F) [RH = 100%]
Pressure (altimeter): 30.32 inches Hg (1027.0 mb)
Winds: from the ESE (110 degrees) at 7 MPH (6 knots; 3.1 m/s)
Visibility: 3 miles ( 5 km)
Ceiling: 300 feet AGL
Clouds: overcast cloud deck at 300 feet AGL
Weather: BR  (mist)

METAR text: UKKK 171530Z 11004MPS 080V140 5000 BR OVC003 08/08 Q1027 R08/70D TEMPO 1000 BR OVC002
Conditions at: UKKK (KIEV/ZHYLIANY , UA) observed 1530 UTC 17 November 2019
Temperature: 8.0°C (46°F)
Dewpoint: 8.0°C (46°F) [RH = 100%]
Pressure (altimeter): 30.32 inches Hg (1027.0 mb)
Winds: from the ESE (110 degrees) at 9 MPH (8 knots; 4.1 m/s)
Visibility: 3 miles ( 5 km)
Ceiling: 300 feet AGL
Clouds: overcast cloud deck at 300 feet AGL
Weather: BR  (mist)

METAR text: UKKK 171500Z 11004MPS 5000 BR BKN004 08/08 Q1027 R08/70D TEMPO 1000 BR OVC003
Conditions at: UKKK (KIEV/ZHYLIANY , UA) observed 1500 UTC 17 November 2019
Temperature: 8.0°C (46°F)
Dewpoint: 8.0°C (46°F) [RH = 100%]
Pressure (altimeter): 30.32 inches Hg (1027.0 mb)
Winds: from the ESE (110 degrees) at 9 MPH (8 knots; 4.1 m/s)
Visibility: 3 miles ( 5 km)
Ceiling: 400 feet AGL
Clouds: broken clouds at 400 feet AGL
Weather: BR  (mist)

METAR text: UKKK 171434Z 11004MPS 6000 SCT004 09/08 Q1027 R08/70D TEMPO 1000 BR OVC003
Conditions at: UKKK (KIEV/ZHYLIANY , UA) observed 1434 UTC 17 November 2019
Temperature: 9.0°C (48°F)
Dewpoint: 8.0°C (46°F) [RH = 93%]
Pressure (altimeter): 30.32 inches Hg (1027.0 mb)
Winds: from the ESE (110 degrees) at 9 MPH (8 knots; 4.1 m/s)
Visibility: 4 miles ( 6 km)
Ceiling: at least 12,000 feet AGL
Clouds: scattered clouds at 400 feet AGL
Weather: no significant weather observed at this time

METAR text: UKKK 171430Z 11004MPS 6000 BKN006 09/08 Q1027 R08/70D TEMPO 4000 BR BKN007
Conditions at: UKKK (KIEV/ZHYLIANY , UA) observed 1430 UTC 17 November 2019
Temperature: 9.0°C (48°F)
Dewpoint: 8.0°C (46°F) [RH = 93%]
Pressure (altimeter): 30.32 inches Hg (1027.0 mb)
Winds: from the ESE (110 degrees) at 9 MPH (8 knots; 4.1 m/s)
Visibility: 4 miles ( 6 km)
Ceiling: 600 feet AGL
Clouds: broken clouds at 600 feet AGL
Weather: no significant weather observed at this time

METAR text: UKKK 171400Z 11003MPS 6000 FEW008 BKN025 09/08 Q1027 R08/70D TEMPO 4000 BR BKN007
Conditions at: UKKK (KIEV/ZHYLIANY , UA) observed 1400 UTC 17 November 2019
Temperature: 9.0°C (48°F)
Dewpoint: 8.0°C (46°F) [RH = 93%]
Pressure (altimeter): 30.32 inches Hg (1027.0 mb)
Winds: from the ESE (110 degrees) at 7 MPH (6 knots; 3.1 m/s)
Visibility: 4 miles ( 6 km)
Ceiling: 2500 feet AGL
Clouds: few clouds at 800 feet AGL
broken clouds at 2500 feet AGL
Weather: no significant weather observed at this time

METAR text: UKKK 171330Z 11003MPS 8000 SCT010 BKN026 10/08 Q1027 R08/70D NOSIG
Conditions at: UKKK (KIEV/ZHYLIANY , UA) observed 1330 UTC 17 November 2019
Temperature: 10.0°C (50°F)
Dewpoint: 8.0°C (46°F) [RH = 87%]
Pressure (altimeter): 30.32 inches Hg (1027.0 mb)
Winds: from the ESE (110 degrees) at 7 MPH (6 knots; 3.1 m/s)
Visibility: 5 miles ( 8 km)
Ceiling: 2600 feet AGL
Clouds: scattered clouds at 1000 feet AGL
broken clouds at 2600 feet AGL
Weather: no significant weather observed at this time

METAR text: UKKK 171300Z 12003MPS 9999 SCT013 OVC027 11/08 Q1027 R08/70D NOSIG
Conditions at: UKKK (KIEV/ZHYLIANY , UA) observed 1300 UTC 17 November 2019
Temperature: 11.0°C (52°F)
Dewpoint: 8.0°C (46°F) [RH = 82%]
Pressure (altimeter): 30.32 inches Hg (1027.0 mb)
Winds: from the ESE (120 degrees) at 7 MPH (6 knots; 3.1 m/s)
Visibility: 6 or more miles (10+ km)
Ceiling: 2700 feet AGL
Clouds: scattered clouds at 1300 feet AGL
overcast cloud deck at 2700 feet AGL
Weather: no significant weather observed at this time

METAR text: UKKK 171230Z 11003MPS 090V150 9999 SCT012 OVC027 11/08 Q1027 R08/70D NOSIG
Conditions at: UKKK (KIEV/ZHYLIANY , UA) observed 1230 UTC 17 November 2019
Temperature: 11.0°C (52°F)
Dewpoint: 8.0°C (46°F) [RH = 82%]
Pressure (altimeter): 30.32 inches Hg (1027.0 mb)
Winds: from the ESE (110 degrees) at 7 MPH (6 knots; 3.1 m/s)
Visibility: 6 or more miles (10+ km)
Ceiling: 2700 feet AGL
Clouds: scattered clouds at 1200 feet AGL
overcast cloud deck at 2700 feet AGL
Weather: no significant weather observed at this time

METAR text: UKKK 171200Z 12004MPS 9999 SCT012 OVC028 11/09 Q1027 R08/70D NOSIG
Conditions at: UKKK (KIEV/ZHYLIANY , UA) observed 1200 UTC 17 November 2019
Temperature: 11.0°C (52°F)
Dewpoint: 9.0°C (48°F) [RH = 87%]
Pressure (altimeter): 30.32 inches Hg (1027.0 mb)
Winds: from the ESE (120 degrees) at 9 MPH (8 knots; 4.1 m/s)
Visibility: 6 or more miles (10+ km)
Ceiling: 2800 feet AGL
Clouds: scattered clouds at 1200 feet AGL
overcast cloud deck at 2800 feet AGL
Weather: no significant weather observed at this time

METAR text: UKKK 171130Z 13003MPS 100V170 9000 FEW011 OVC026 11/09 Q1027 R08/70D NOSIG
Conditions at: UKKK (KIEV/ZHYLIANY , UA) observed 1130 UTC 17 November 2019
Temperature: 11.0°C (52°F)
Dewpoint: 9.0°C (48°F) [RH = 87%]
Pressure (altimeter): 30.32 inches Hg (1027.0 mb)
Winds: from the SE (130 degrees) at 7 MPH (6 knots; 3.1 m/s)
Visibility: 6 miles ( 9 km)
Ceiling: 2600 feet AGL
Clouds: few clouds at 1100 feet AGL
overcast cloud deck at 2600 feet AGL
Weather: no significant weather observed at this time

METAR text: UKKK 171100Z 12003MPS 070V150 9999 FEW011 OVC026 11/09 Q1027 R08/70D NOSIG
Conditions at: UKKK (KIEV/ZHYLIANY , UA) observed 1100 UTC 17 November 2019
Temperature: 11.0°C (52°F)
Dewpoint: 9.0°C (48°F) [RH = 87%]
Pressure (altimeter): 30.32 inches Hg (1027.0 mb)
Winds: from the ESE (120 degrees) at 7 MPH (6 knots; 3.1 m/s)
Visibility: 6 or more miles (10+ km)
Ceiling: 2600 feet AGL
Clouds: few clouds at 1100 feet AGL
overcast cloud deck at 2600 feet AGL
Weather: no significant weather observed at this time

METAR text: UKKK 171030Z 14002MPS 110V170 9999 OVC027 11/09 Q1027 R08/70D NOSIG
Conditions at: UKKK (KIEV/ZHYLIANY , UA) observed 1030 UTC 17 November 2019
Temperature: 11.0°C (52°F)
Dewpoint: 9.0°C (48°F) [RH = 87%]
Pressure (altimeter): 30.32 inches Hg (1027.0 mb)
Winds: from the SE (140 degrees) at 5 MPH (4 knots; 2.1 m/s)
Visibility: 6 or more miles (10+ km)
Ceiling: 2700 feet AGL
Clouds: overcast cloud deck at 2700 feet AGL
Weather: no significant weather observed at this time

METAR text: UKKK 171000Z 12002MPS 090V150 9000 SCT011 OVC028 11/09 Q1027 R08/70D NOSIG
Conditions at: UKKK (KIEV/ZHYLIANY , UA) observed 1000 UTC 17 November 2019
Temperature: 11.0°C (52°F)
Dewpoint: 9.0°C (48°F) [RH = 87%]
Pressure (altimeter): 30.32 inches Hg (1027.0 mb)
Winds: from the ESE (120 degrees) at 5 MPH (4 knots; 2.1 m/s)
Visibility: 6 miles ( 9 km)
Ceiling: 2800 feet AGL
Clouds: scattered clouds at 1100 feet AGL
overcast cloud deck at 2800 feet AGL
Weather: no significant weather observed at this time

METAR text: UKKK 170930Z 13002MPS 090V180 9999 SCT011 BKN028 11/09 Q1027 R08/70D NOSIG
Conditions at: UKKK (KIEV/ZHYLIANY , UA) observed 0930 UTC 17 November 2019
Temperature: 11.0°C (52°F)
Dewpoint: 9.0°C (48°F) [RH = 87%]
Pressure (altimeter): 30.32 inches Hg (1027.0 mb)
Winds: from the SE (130 degrees) at 5 MPH (4 knots; 2.1 m/s)
Visibility: 6 or more miles (10+ km)
Ceiling: 2800 feet AGL
Clouds: scattered clouds at 1100 feet AGL
broken clouds at 2800 feet AGL
Weather: no significant weather observed at this time

METAR text: UKKK 170900Z VRB01MPS 9000 SCT009 BKN030 11/09 Q1027 R08/70D NOSIG
Conditions at: UKKK (KIEV/ZHYLIANY , UA) observed 0900 UTC 17 November 2019
Temperature: 11.0°C (52°F)
Dewpoint: 9.0°C (48°F) [RH = 87%]
Pressure (altimeter): 30.32 inches Hg (1027.0 mb)
Winds: variable direction winds at 2 MPH (2 knots; 1.0 m/s)
Visibility: 6 miles ( 9 km)
Ceiling: 3000 feet AGL
Clouds: scattered clouds at 900 feet AGL
broken clouds at 3000 feet AGL
Weather: no significant weather observed at this time

METAR text: UKKK 170830Z 14002MPS 110V180 9000 SCT009 BKN032 10/09 Q1028 R08/70D NOSIG
Conditions at: UKKK (KIEV/ZHYLIANY , UA) observed 0830 UTC 17 November 2019
Temperature: 10.0°C (50°F)
Dewpoint: 9.0°C (48°F) [RH = 93%]
Pressure (altimeter): 30.35 inches Hg (1028.0 mb)
Winds: from the SE (140 degrees) at 5 MPH (4 knots; 2.1 m/s)
Visibility: 6 miles ( 9 km)
Ceiling: 3200 feet AGL
Clouds: scattered clouds at 900 feet AGL
broken clouds at 3200 feet AGL
Weather: no significant weather observed at this time

METAR text: UKKK 170800Z 14002MPS 110V180 9000 SCT007 BKN032 10/09 Q1028 R08/70D NOSIG
Conditions at: UKKK (KIEV/ZHYLIANY , UA) observed 0800 UTC 17 November 2019
Temperature: 10.0°C (50°F)
Dewpoint: 9.0°C (48°F) [RH = 93%]
Pressure (altimeter): 30.35 inches Hg (1028.0 mb)
Winds: from the SE (140 degrees) at 5 MPH (4 knots; 2.1 m/s)
Visibility: 6 miles ( 9 km)
Ceiling: 3200 feet AGL
Clouds: scattered clouds at 700 feet AGL
broken clouds at 3200 feet AGL
Weather: no significant weather observed at this time

METAR text: UKKK 170730Z 13003MPS 110V180 8000 SCT007 BKN032 10/08 Q1027 R08/70D NOSIG
Conditions at: UKKK (KIEV/ZHYLIANY , UA) observed 0730 UTC 17 November 2019
Temperature: 10.0°C (50°F)
Dewpoint: 8.0°C (46°F) [RH = 87%]
Pressure (altimeter): 30.32 inches Hg (1027.0 mb)
Winds: from the SE (130 degrees) at 7 MPH (6 knots; 3.1 m/s)
Visibility: 5 miles ( 8 km)
Ceiling: 3200 feet AGL
Clouds: scattered clouds at 700 feet AGL
broken clouds at 3200 feet AGL
Weather: no significant weather observed at this time

METAR text: UKKK 170700Z 13002MPS 090V170 8000 SCT007 BKN033 10/08 Q1027 R08/70D NOSIG
Conditions at: UKKK (KIEV/ZHYLIANY , UA) observed 0700 UTC 17 November 2019
Temperature: 10.0°C (50°F)
Dewpoint: 8.0°C (46°F) [RH = 87%]
Pressure (altimeter): 30.32 inches Hg (1027.0 mb)
Winds: from the SE (130 degrees) at 5 MPH (4 knots; 2.1 m/s)
Visibility: 5 miles ( 8 km)
Ceiling: 3300 feet AGL
Clouds: scattered clouds at 700 feet AGL
broken clouds at 3300 feet AGL
Weather: no significant weather observed at this time

METAR text: UKKK 170630Z 14002MPS 100V180 7000 FEW011 BKN034 09/08 Q1027 R08/70D NOSIG
Conditions at: UKKK (KIEV/ZHYLIANY , UA) observed 0630 UTC 17 November 2019
Temperature: 9.0°C (48°F)
Dewpoint: 8.0°C (46°F) [RH = 93%]
Pressure (altimeter): 30.32 inches Hg (1027.0 mb)
Winds: from the SE (140 degrees) at 5 MPH (4 knots; 2.1 m/s)
Visibility: 4 miles ( 7 km)
Ceiling: 3400 feet AGL
Clouds: few clouds at 1100 feet AGL
broken clouds at 3400 feet AGL
Weather: no significant weather observed at this time

METAR text: UKKK 170600Z 12002MPS 7000 FEW011 BKN034 09/08 Q1027 R08/CLRD70 NOSIG
Conditions at: UKKK (KIEV/ZHYLIANY , UA) observed 0600 UTC 17 November 2019
Temperature: 9.0°C (48°F)
Dewpoint: 8.0°C (46°F) [RH = 93%]
Pressure (altimeter): 30.32 inches Hg (1027.0 mb)
Winds: from the ESE (120 degrees) at 5 MPH (4 knots; 2.1 m/s)
Visibility: 4 miles ( 7 km)
Ceiling: 3400 feet AGL
Clouds: few clouds at 1100 feet AGL
broken clouds at 3400 feet AGL
Weather: no significant weather observed at this time

METAR text: UKKK 170530Z 13002MPS 100V160 7000 SCT009 BKN033 09/08 Q1027 R08/70D NOSIG
Conditions at: UKKK (KIEV/ZHYLIANY , UA) observed 0530 UTC 17 November 2019
Temperature: 9.0°C (48°F)
Dewpoint: 8.0°C (46°F) [RH = 93%]
Pressure (altimeter): 30.32 inches Hg (1027.0 mb)
Winds: from the SE (130 degrees) at 5 MPH (4 knots; 2.1 m/s)
Visibility: 4 miles ( 7 km)
Ceiling: 3300 feet AGL
Clouds: scattered clouds at 900 feet AGL
broken clouds at 3300 feet AGL
Weather: no significant weather observed at this time

METAR text: UKKK 170500Z 15002MPS 110V180 8000 SCT010 BKN033 09/08 Q1027 R08/70D NOSIG
Conditions at: UKKK (KIEV/ZHYLIANY , UA) observed 0500 UTC 17 November 2019
Temperature: 9.0°C (48°F)
Dewpoint: 8.0°C (46°F) [RH = 93%]
Pressure (altimeter): 30.32 inches Hg (1027.0 mb)
Winds: from the SSE (150 degrees) at 5 MPH (4 knots; 2.1 m/s)
Visibility: 5 miles ( 8 km)
Ceiling: 3300 feet AGL
Clouds: scattered clouds at 1000 feet AGL
broken clouds at 3300 feet AGL
Weather: no significant weather observed at this time

METAR text: UKKK 170430Z 15002MPS 120V190 8000 BKN010 OVC033 09/08 Q1026 R08/70D NOSIG
Conditions at: UKKK (KIEV/ZHYLIANY , UA) observed 0430 UTC 17 November 2019
Temperature: 9.0°C (48°F)
Dewpoint: 8.0°C (46°F) [RH = 93%]
Pressure (altimeter): 30.30 inches Hg (1026.0 mb)
Winds: from the SSE (150 degrees) at 5 MPH (4 knots; 2.1 m/s)
Visibility: 5 miles ( 8 km)
Ceiling: 1000 feet AGL
Clouds: broken clouds at 1000 feet AGL
overcast cloud deck at 3300 feet AGL
Weather: no significant weather observed at this time

METAR text: UKKK 170400Z 14002MPS 100V220 8000 BKN010 OVC033 09/08 Q1026 R08/70D NOSIG
Conditions at: UKKK (KIEV/ZHYLIANY , UA) observed 0400 UTC 17 November 2019
Temperature: 9.0°C (48°F)
Dewpoint: 8.0°C (46°F) [RH = 93%]
Pressure (altimeter): 30.30 inches Hg (1026.0 mb)
Winds: from the SE (140 degrees) at 5 MPH (4 knots; 2.1 m/s)
Visibility: 5 miles ( 8 km)
Ceiling: 1000 feet AGL
Clouds: broken clouds at 1000 feet AGL
overcast cloud deck at 3300 feet AGL
Weather: no significant weather observed at this time

METAR text: UKKK 170339Z 13002MPS 100V160 8000 BKN009 OVC032 09/08 Q1026 R08/70D NOSIG
Conditions at: UKKK (KIEV/ZHYLIANY , UA) observed 0339 UTC 17 November 2019
Temperature: 9.0°C (48°F)
Dewpoint: 8.0°C (46°F) [RH = 93%]
Pressure (altimeter): 30.30 inches Hg (1026.0 mb)
Winds: from the SE (130 degrees) at 5 MPH (4 knots; 2.1 m/s)
Visibility: 5 miles ( 8 km)
Ceiling: 900 feet AGL
Clouds: broken clouds at 900 feet AGL
overcast cloud deck at 3200 feet AGL
Weather: no significant weather observed at this time

METAR text: UKKK 170330Z 14002MPS 100V180 8000 BKN012 OVC032 09/08 Q1026 R08/70D NOSIG
Conditions at: UKKK (KIEV/ZHYLIANY , UA) observed 0330 UTC 17 November 2019
Temperature: 9.0°C (48°F)
Dewpoint: 8.0°C (46°F) [RH = 93%]
Pressure (altimeter): 30.30 inches Hg (1026.0 mb)
Winds: from the SE (140 degrees) at 5 MPH (4 knots; 2.1 m/s)
Visibility: 5 miles ( 8 km)
Ceiling: 1200 feet AGL
Clouds: broken clouds at 1200 feet AGL
overcast cloud deck at 3200 feet AGL
Weather: no significant weather observed at this time

METAR text: UKKK 170300Z 14002MPS 110V210 7000 BKN011 OVC032 09/08 Q1026 R08/70D NOSIG
Conditions at: UKKK (KIEV/ZHYLIANY , UA) observed 0300 UTC 17 November 2019
Temperature: 9.0°C (48°F)
Dewpoint: 8.0°C (46°F) [RH = 93%]
Pressure (altimeter): 30.30 inches Hg (1026.0 mb)
Winds: from the SE (140 degrees) at 5 MPH (4 knots; 2.1 m/s)
Visibility: 4 miles ( 7 km)
Ceiling: 1100 feet AGL
Clouds: broken clouds at 1100 feet AGL
overcast cloud deck at 3200 feet AGL
Weather: no significant weather observed at this time

METAR text: UKKK 170230Z 13002MPS 8000 OVC011 09/08 Q1026 R08/70D NOSIG
Conditions at: UKKK (KIEV/ZHYLIANY , UA) observed 0230 UTC 17 November 2019
Temperature: 9.0°C (48°F)
Dewpoint: 8.0°C (46°F) [RH = 93%]
Pressure (altimeter): 30.30 inches Hg (1026.0 mb)
Winds: from the SE (130 degrees) at 5 MPH (4 knots; 2.1 m/s)
Visibility: 5 miles ( 8 km)
Ceiling: 1100 feet AGL
Clouds: overcast cloud deck at 1100 feet AGL
Weather: no significant weather observed at this time

METAR text: UKKK 170200Z 13002MPS 100V160 8000 OVC011 09/08 Q1026 R08/70D NOSIG
Conditions at: UKKK (KIEV/ZHYLIANY , UA) observed 0200 UTC 17 November 2019
Temperature: 9.0°C (48°F)
Dewpoint: 8.0°C (46°F) [RH = 93%]
Pressure (altimeter): 30.30 inches Hg (1026.0 mb)
Winds: from the SE (130 degrees) at 5 MPH (4 knots; 2.1 m/s)
Visibility: 5 miles ( 8 km)
Ceiling: 1100 feet AGL
Clouds: overcast cloud deck at 1100 feet AGL
Weather: no significant weather observed at this time

METAR text: UKKK 170130Z 14003MPS 100V160 8000 OVC011 09/08 Q1026 R08/70D NOSIG
Conditions at: UKKK (KIEV/ZHYLIANY , UA) observed 0130 UTC 17 November 2019
Temperature: 9.0°C (48°F)
Dewpoint: 8.0°C (46°F) [RH = 93%]
Pressure (altimeter): 30.30 inches Hg (1026.0 mb)
Winds: from the SE (140 degrees) at 7 MPH (6 knots; 3.1 m/s)
Visibility: 5 miles ( 8 km)
Ceiling: 1100 feet AGL
Clouds: overcast cloud deck at 1100 feet AGL
Weather: no significant weather observed at this time

METAR text: UKKK 170100Z 14003MPS 100V160 8000 OVC011 09/08 Q1026 R08/70D NOSIG
Conditions at: UKKK (KIEV/ZHYLIANY , UA) observed 0100 UTC 17 November 2019
Temperature: 9.0°C (48°F)
Dewpoint: 8.0°C (46°F) [RH = 93%]
Pressure (altimeter): 30.30 inches Hg (1026.0 mb)
Winds: from the SE (140 degrees) at 7 MPH (6 knots; 3.1 m/s)
Visibility: 5 miles ( 8 km)
Ceiling: 1100 feet AGL
Clouds: overcast cloud deck at 1100 feet AGL
Weather: no significant weather observed at this time

METAR text: UKKK 170030Z 14002MPS 110V180 8000 BKN011 09/08 Q1026 R08/70D NOSIG
Conditions at: UKKK (KIEV/ZHYLIANY , UA) observed 0030 UTC 17 November 2019
Temperature: 9.0°C (48°F)
Dewpoint: 8.0°C (46°F) [RH = 93%]
Pressure (altimeter): 30.30 inches Hg (1026.0 mb)
Winds: from the SE (140 degrees) at 5 MPH (4 knots; 2.1 m/s)
Visibility: 5 miles ( 8 km)
Ceiling: 1100 feet AGL
Clouds: broken clouds at 1100 feet AGL
Weather: no significant weather observed at this time

METAR text: UKKK 170000Z 12003MPS 090V150 8000 BKN011 09/08 Q1026 R08/70D NOSIG
Conditions at: UKKK (KIEV/ZHYLIANY , UA) observed 0000 UTC 17 November 2019
Temperature: 9.0°C (48°F)
Dewpoint: 8.0°C (46°F) [RH = 93%]
Pressure (altimeter): 30.30 inches Hg (1026.0 mb)
Winds: from the ESE (120 degrees) at 7 MPH (6 knots; 3.1 m/s)
Visibility: 5 miles ( 8 km)
Ceiling: 1100 feet AGL
Clouds: broken clouds at 1100 feet AGL
Weather: no significant weather observed at this time

METAR text: UKKK 162330Z 12002MPS 090V150 7000 BKN013 09/08 Q1026 R08/70D NOSIG
Conditions at: UKKK (KIEV/ZHYLIANY , UA) observed 2330 UTC 16 November 2019
Temperature: 9.0°C (48°F)
Dewpoint: 8.0°C (46°F) [RH = 93%]
Pressure (altimeter): 30.30 inches Hg (1026.0 mb)
Winds: from the ESE (120 degrees) at 5 MPH (4 knots; 2.1 m/s)
Visibility: 4 miles ( 7 km)
Ceiling: 1300 feet AGL
Clouds: broken clouds at 1300 feet AGL
Weather: no significant weather observed at this time

METAR text: UKKK 162300Z 11002MPS 090V150 7000 SCT014 OVC040 09/08 Q1026 R08/70D NOSIG
Conditions at: UKKK (KIEV/ZHYLIANY , UA) observed 2300 UTC 16 November 2019
Temperature: 9.0°C (48°F)
Dewpoint: 8.0°C (46°F) [RH = 93%]
Pressure (altimeter): 30.30 inches Hg (1026.0 mb)
Winds: from the ESE (110 degrees) at 5 MPH (4 knots; 2.1 m/s)
Visibility: 4 miles ( 7 km)
Ceiling: 4000 feet AGL
Clouds: scattered clouds at 1400 feet AGL
overcast cloud deck at 4000 feet AGL
Weather: no significant weather observed at this time

METAR text: UKKK 162230Z 12002MPS 7000 FEW015 OVC038 09/08 Q1026 R08/70D NOSIG
Conditions at: UKKK (KIEV/ZHYLIANY , UA) observed 2230 UTC 16 November 2019
Temperature: 9.0°C (48°F)
Dewpoint: 8.0°C (46°F) [RH = 93%]
Pressure (altimeter): 30.30 inches Hg (1026.0 mb)
Winds: from the ESE (120 degrees) at 5 MPH (4 knots; 2.1 m/s)
Visibility: 4 miles ( 7 km)
Ceiling: 3800 feet AGL
Clouds: few clouds at 1500 feet AGL
overcast cloud deck at 3800 feet AGL
Weather: no significant weather observed at this time

METAR text: UKKK 162200Z 13002MPS 100V200 7000 OVC040 09/08 Q1026 R08/70D NOSIG
Conditions at: UKKK (KIEV/ZHYLIANY , UA) observed 2200 UTC 16 November 2019
Temperature: 9.0°C (48°F)
Dewpoint: 8.0°C (46°F) [RH = 93%]
Pressure (altimeter): 30.30 inches Hg (1026.0 mb)
Winds: from the SE (130 degrees) at 5 MPH (4 knots; 2.1 m/s)
Visibility: 4 miles ( 7 km)
Ceiling: 4000 feet AGL
Clouds: overcast cloud deck at 4000 feet AGL
Weather: no significant weather observed at this time

METAR text: UKKK 162130Z 13002MPS 100V170 8000 OVC038 09/07 Q1026 R08/70D NOSIG
Conditions at: UKKK (KIEV/ZHYLIANY , UA) observed 2130 UTC 16 November 2019
Temperature: 9.0°C (48°F)
Dewpoint: 7.0°C (45°F) [RH = 87%]
Pressure (altimeter): 30.30 inches Hg (1026.0 mb)
Winds: from the SE (130 degrees) at 5 MPH (4 knots; 2.1 m/s)
Visibility: 5 miles ( 8 km)
Ceiling: 3800 feet AGL
Clouds: overcast cloud deck at 3800 feet AGL
Weather: no significant weather observed at this time

METAR text: UKKK 162100Z 13002MPS 8000 OVC023 09/07 Q1026 R08/70D NOSIG
Conditions at: UKKK (KIEV/ZHYLIANY , UA) observed 2100 UTC 16 November 2019
Temperature: 9.0°C (48°F)
Dewpoint: 7.0°C (45°F) [RH = 87%]
Pressure (altimeter): 30.30 inches Hg (1026.0 mb)
Winds: from the SE (130 degrees) at 5 MPH (4 knots; 2.1 m/s)
Visibility: 5 miles ( 8 km)
Ceiling: 2300 feet AGL
Clouds: overcast cloud deck at 2300 feet AGL
Weather: no significant weather observed at this time

METAR text: UKKK 162030Z 13003MPS 100V160 8000 OVC021 09/07 Q1025 R08/70D NOSIG
Conditions at: UKKK (KIEV/ZHYLIANY , UA) observed 2030 UTC 16 November 2019
Temperature: 9.0°C (48°F)
Dewpoint: 7.0°C (45°F) [RH = 87%]
Pressure (altimeter): 30.27 inches Hg (1025.0 mb)
Winds: from the SE (130 degrees) at 7 MPH (6 knots; 3.1 m/s)
Visibility: 5 miles ( 8 km)
Ceiling: 2100 feet AGL
Clouds: overcast cloud deck at 2100 feet AGL
Weather: no significant weather observed at this time

METAR text: UKKK 162000Z 13003MPS 100V160 8000 OVC021 09/07 Q1025 R08/70D NOSIG
Conditions at: UKKK (KIEV/ZHYLIANY , UA) observed 2000 UTC 16 November 2019
Temperature: 9.0°C (48°F)
Dewpoint: 7.0°C (45°F) [RH = 87%]
Pressure (altimeter): 30.27 inches Hg (1025.0 mb)
Winds: from the SE (130 degrees) at 7 MPH (6 knots; 3.1 m/s)
Visibility: 5 miles ( 8 km)
Ceiling: 2100 feet AGL
Clouds: overcast cloud deck at 2100 feet AGL
Weather: no significant weather observed at this time

METAR text: UKKK 161930Z 12002MPS 080V160 8000 FEW014 OVC033 09/07 Q1026 R08/70D NOSIG
Conditions at: UKKK (KIEV/ZHYLIANY , UA) observed 1930 UTC 16 November 2019
Temperature: 9.0°C (48°F)
Dewpoint: 7.0°C (45°F) [RH = 87%]
Pressure (altimeter): 30.30 inches Hg (1026.0 mb)
Winds: from the ESE (120 degrees) at 5 MPH (4 knots; 2.1 m/s)
Visibility: 5 miles ( 8 km)
Ceiling: 3300 feet AGL
Clouds: few clouds at 1400 feet AGL
overcast cloud deck at 3300 feet AGL
Weather: no significant weather observed at this time

METAR text: UKKK 161900Z 13002MPS 090V170 9000 FEW013 OVC032 09/08 Q1025 R08/70D NOSIG
Conditions at: UKKK (KIEV/ZHYLIANY , UA) observed 1900 UTC 16 November 2019
Temperature: 9.0°C (48°F)
Dewpoint: 8.0°C (46°F) [RH = 93%]
Pressure (altimeter): 30.27 inches Hg (1025.0 mb)
Winds: from the SE (130 degrees) at 5 MPH (4 knots; 2.1 m/s)
Visibility: 6 miles ( 9 km)
Ceiling: 3200 feet AGL
Clouds: few clouds at 1300 feet AGL
overcast cloud deck at 3200 feet AGL
Weather: no significant weather observed at this time

METAR text: UKKK 161830Z 13002MPS 090V160 9000 FEW013 OVC032 09/07 Q1025 R08/70D NOSIG
Conditions at: UKKK (KIEV/ZHYLIANY , UA) observed 1830 UTC 16 November 2019
Temperature: 9.0°C (48°F)
Dewpoint: 7.0°C (45°F) [RH = 87%]
Pressure (altimeter): 30.27 inches Hg (1025.0 mb)
Winds: from the SE (130 degrees) at 5 MPH (4 knots; 2.1 m/s)
Visibility: 6 miles ( 9 km)
Ceiling: 3200 feet AGL
Clouds: few clouds at 1300 feet AGL
overcast cloud deck at 3200 feet AGL
Weather: no significant weather observed at this time

METAR text: UKKK 161800Z 13003MPS 100V210 9999 OVC031 09/08 Q1025 R08/70D NOSIG
Conditions at: UKKK (KIEV/ZHYLIANY , UA) observed 1800 UTC 16 November 2019
Temperature: 9.0°C (48°F)
Dewpoint: 8.0°C (46°F) [RH = 93%]
Pressure (altimeter): 30.27 inches Hg (1025.0 mb)
Winds: from the SE (130 degrees) at 7 MPH (6 knots; 3.1 m/s)
Visibility: 6 or more miles (10+ km)
Ceiling: 3100 feet AGL
Clouds: overcast cloud deck at 3100 feet AGL
Weather: no significant weather observed at this time

METAR text: UKKK 161730Z 13004MPS 100V180 9999 OVC024 10/08 Q1025 R08/70D NOSIG
Conditions at: UKKK (KIEV/ZHYLIANY , UA) observed 1730 UTC 16 November 2019
Temperature: 10.0°C (50°F)
Dewpoint: 8.0°C (46°F) [RH = 87%]
Pressure (altimeter): 30.27 inches Hg (1025.0 mb)
Winds: from the SE (130 degrees) at 9 MPH (8 knots; 4.1 m/s)
Visibility: 6 or more miles (10+ km)
Ceiling: 2400 feet AGL
Clouds: overcast cloud deck at 2400 feet AGL
Weather: no significant weather observed at this time

METAR text: UKKK 161700Z 13004MPS 9999 OVC024 10/08 Q1025 R08/70D NOSIG
Conditions at: UKKK (KIEV/ZHYLIANY , UA) observed 1700 UTC 16 November 2019
Temperature: 10.0°C (50°F)
Dewpoint: 8.0°C (46°F) [RH = 87%]
Pressure (altimeter): 30.27 inches Hg (1025.0 mb)
Winds: from the SE (130 degrees) at 9 MPH (8 knots; 4.1 m/s)
Visibility: 6 or more miles (10+ km)
Ceiling: 2400 feet AGL
Clouds: overcast cloud deck at 2400 feet AGL
Weather: no significant weather observed at this time

METAR text: UKKK 161630Z 13004MPS 110V170 9999 OVC024 10/08 Q1025 R08/70D NOSIG
Conditions at: UKKK (KIEV/ZHYLIANY , UA) observed 1630 UTC 16 November 2019
Temperature: 10.0°C (50°F)
Dewpoint: 8.0°C (46°F) [RH = 87%]
Pressure (altimeter): 30.27 inches Hg (1025.0 mb)
Winds: from the SE (130 degrees) at 9 MPH (8 knots; 4.1 m/s)
Visibility: 6 or more miles (10+ km)
Ceiling: 2400 feet AGL
Clouds: overcast cloud deck at 2400 feet AGL
Weather: no significant weather observed at this time

METAR text: UKKK 161600Z 13003MPS 100V160 9999 OVC022 10/08 Q1025 R08/70D NOSIG
Conditions at: UKKK (KIEV/ZHYLIANY , UA) observed 1600 UTC 16 November 2019
Temperature: 10.0°C (50°F)
Dewpoint: 8.0°C (46°F) [RH = 87%]
Pressure (altimeter): 30.27 inches Hg (1025.0 mb)
Winds: from the SE (130 degrees) at 7 MPH (6 knots; 3.1 m/s)
Visibility: 6 or more miles (10+ km)
Ceiling: 2200 feet AGL
Clouds: overcast cloud deck at 2200 feet AGL
Weather: no significant weather observed at this time

METAR text: UKKK 161530Z 12004MPS 9000 OVC023 10/08 Q1025 R08/70D NOSIG
Conditions at: UKKK (KIEV/ZHYLIANY , UA) observed 1530 UTC 16 November 2019
Temperature: 10.0°C (50°F)
Dewpoint: 8.0°C (46°F) [RH = 87%]
Pressure (altimeter): 30.27 inches Hg (1025.0 mb)
Winds: from the ESE (120 degrees) at 9 MPH (8 knots; 4.1 m/s)
Visibility: 6 miles ( 9 km)
Ceiling: 2300 feet AGL
Clouds: overcast cloud deck at 2300 feet AGL
Weather: no significant weather observed at this time

METAR text: UKKK 161500Z 12003MPS 9000 OVC025 10/08 Q1025 R08/70D NOSIG
Conditions at: UKKK (KIEV/ZHYLIANY , UA) observed 1500 UTC 16 November 2019
Temperature: 10.0°C (50°F)
Dewpoint: 8.0°C (46°F) [RH = 87%]
Pressure (altimeter): 30.27 inches Hg (1025.0 mb)
Winds: from the ESE (120 degrees) at 7 MPH (6 knots; 3.1 m/s)
Visibility: 6 miles ( 9 km)
Ceiling: 2500 feet AGL
Clouds: overcast cloud deck at 2500 feet AGL
Weather: no significant weather observed at this time

METAR text: UKKK 161430Z 13003MPS 9000 OVC026 10/08 Q1025 R08/70D NOSIG
Conditions at: UKKK (KIEV/ZHYLIANY , UA) observed 1430 UTC 16 November 2019
Temperature: 10.0°C (50°F)
Dewpoint: 8.0°C (46°F) [RH = 87%]
Pressure (altimeter): 30.27 inches Hg (1025.0 mb)
Winds: from the SE (130 degrees) at 7 MPH (6 knots; 3.1 m/s)
Visibility: 6 miles ( 9 km)
Ceiling: 2600 feet AGL
Clouds: overcast cloud deck at 2600 feet AGL
Weather: no significant weather observed at this time

METAR text: UKKK 161400Z 14002MPS 100V190 9000 OVC026 10/08 Q1024 R08/70D NOSIG
Conditions at: UKKK (KIEV/ZHYLIANY , UA) observed 1400 UTC 16 November 2019
Temperature: 10.0°C (50°F)
Dewpoint: 8.0°C (46°F) [RH = 87%]
Pressure (altimeter): 30.24 inches Hg (1024.0 mb)
Winds: from the SE (140 degrees) at 5 MPH (4 knots; 2.1 m/s)
Visibility: 6 miles ( 9 km)
Ceiling: 2600 feet AGL
Clouds: overcast cloud deck at 2600 feet AGL
Weather: no significant weather observed at this time

METAR text: UKKK 161330Z 13003MPS 9000 OVC023 10/08 Q1024 R08/70D NOSIG
Conditions at: UKKK (KIEV/ZHYLIANY , UA) observed 1330 UTC 16 November 2019
Temperature: 10.0°C (50°F)
Dewpoint: 8.0°C (46°F) [RH = 87%]
Pressure (altimeter): 30.24 inches Hg (1024.0 mb)
Winds: from the SE (130 degrees) at 7 MPH (6 knots; 3.1 m/s)
Visibility: 6 miles ( 9 km)
Ceiling: 2300 feet AGL
Clouds: overcast cloud deck at 2300 feet AGL
Weather: no significant weather observed at this time

METAR text: UKKK 161300Z 12003MPS 080V140 9999 OVC029 10/08 Q1024 R08/70D NOSIG
Conditions at: UKKK (KIEV/ZHYLIANY , UA) observed 1300 UTC 16 November 2019
Temperature: 10.0°C (50°F)
Dewpoint: 8.0°C (46°F) [RH = 87%]
Pressure (altimeter): 30.24 inches Hg (1024.0 mb)
Winds: from the ESE (120 degrees) at 7 MPH (6 knots; 3.1 m/s)
Visibility: 6 or more miles (10+ km)
Ceiling: 2900 feet AGL
Clouds: overcast cloud deck at 2900 feet AGL
Weather: no significant weather observed at this time

METAR text: UKKK 161230Z 13003MPS 100V170 9999 OVC029 10/08 Q1024 R08/70D NOSIG
Conditions at: UKKK (KIEV/ZHYLIANY , UA) observed 1230 UTC 16 November 2019
Temperature: 10.0°C (50°F)
Dewpoint: 8.0°C (46°F) [RH = 87%]
Pressure (altimeter): 30.24 inches Hg (1024.0 mb)
Winds: from the SE (130 degrees) at 7 MPH (6 knots; 3.1 m/s)
Visibility: 6 or more miles (10+ km)
Ceiling: 2900 feet AGL
Clouds: overcast cloud deck at 2900 feet AGL
Weather: no significant weather observed at this time

METAR text: UKKK 161200Z 13003MPS 110V170 9999 OVC030 10/08 Q1024 R08/70D NOSIG
Conditions at: UKKK (KIEV/ZHYLIANY , UA) observed 1200 UTC 16 November 2019
Temperature: 10.0°C (50°F)
Dewpoint: 8.0°C (46°F) [RH = 87%]
Pressure (altimeter): 30.24 inches Hg (1024.0 mb)
Winds: from the SE (130 degrees) at 7 MPH (6 knots; 3.1 m/s)
Visibility: 6 or more miles (10+ km)
Ceiling: 3000 feet AGL
Clouds: overcast cloud deck at 3000 feet AGL
Weather: no significant weather observed at this time

METAR text: UKKK 161130Z 13003MPS 9999 OVC027 09/07 Q1024 R08/70D NOSIG
Conditions at: UKKK (KIEV/ZHYLIANY , UA) observed 1130 UTC 16 November 2019
Temperature: 9.0°C (48°F)
Dewpoint: 7.0°C (45°F) [RH = 87%]
Pressure (altimeter): 30.24 inches Hg (1024.0 mb)
Winds: from the SE (130 degrees) at 7 MPH (6 knots; 3.1 m/s)
Visibility: 6 or more miles (10+ km)
Ceiling: 2700 feet AGL
Clouds: overcast cloud deck at 2700 feet AGL
Weather: no significant weather observed at this time

METAR text: UKKK 161100Z 12002MPS 080V160 9999 OVC025 09/07 Q1024 R08/190060 NOSIG
Conditions at: UKKK (KIEV/ZHYLIANY , UA) observed 1100 UTC 16 November 2019
Temperature: 9.0°C (48°F)
Dewpoint: 7.0°C (45°F) [RH = 87%]
Pressure (altimeter): 30.24 inches Hg (1024.0 mb)
Winds: from the ESE (120 degrees) at 5 MPH (4 knots; 2.1 m/s)
Visibility: 6 or more miles (10+ km)
Ceiling: 2500 feet AGL
Clouds: overcast cloud deck at 2500 feet AGL
Weather: no significant weather observed at this time

METAR text: UKKK 161030Z 13003MPS 9000 OVC026 09/07 Q1024 R08/190060 NOSIG
Conditions at: UKKK (KIEV/ZHYLIANY , UA) observed 1030 UTC 16 November 2019
Temperature: 9.0°C (48°F)
Dewpoint: 7.0°C (45°F) [RH = 87%]
Pressure (altimeter): 30.24 inches Hg (1024.0 mb)
Winds: from the SE (130 degrees) at 7 MPH (6 knots; 3.1 m/s)
Visibility: 6 miles ( 9 km)
Ceiling: 2600 feet AGL
Clouds: overcast cloud deck at 2600 feet AGL
Weather: no significant weather observed at this time

METAR text: UKKK 161000Z 14003MPS 100V200 9999 SCT007 OVC030 09/07 Q1024 R08/190060 NOSIG
Conditions at: UKKK (KIEV/ZHYLIANY , UA) observed 1000 UTC 16 November 2019
Temperature: 9.0°C (48°F)
Dewpoint: 7.0°C (45°F) [RH = 87%]
Pressure (altimeter): 30.24 inches Hg (1024.0 mb)
Winds: from the SE (140 degrees) at 7 MPH (6 knots; 3.1 m/s)
Visibility: 6 or more miles (10+ km)
Ceiling: 3000 feet AGL
Clouds: scattered clouds at 700 feet AGL
overcast cloud deck at 3000 feet AGL
Weather: no significant weather observed at this time

METAR text: UKKK 160930Z 14002MPS 090V240 9999 SCT008 OVC030 09/07 Q1024 R08/290058 NOSIG
Conditions at: UKKK (KIEV/ZHYLIANY , UA) observed 0930 UTC 16 November 2019
Temperature: 9.0°C (48°F)
Dewpoint: 7.0°C (45°F) [RH = 87%]
Pressure (altimeter): 30.24 inches Hg (1024.0 mb)
Winds: from the SE (140 degrees) at 5 MPH (4 knots; 2.1 m/s)
Visibility: 6 or more miles (10+ km)
Ceiling: 3000 feet AGL
Clouds: scattered clouds at 800 feet AGL
overcast cloud deck at 3000 feet AGL
Weather: no significant weather observed at this time

METAR text: UKKK 160900Z 13003MPS 100V170 9000 SCT007 OVC034 08/07 Q1024 R08/290058 NOSIG
Conditions at: UKKK (KIEV/ZHYLIANY , UA) observed 0900 UTC 16 November 2019
Temperature: 8.0°C (46°F)
Dewpoint: 7.0°C (45°F) [RH = 93%]
Pressure (altimeter): 30.24 inches Hg (1024.0 mb)
Winds: from the SE (130 degrees) at 7 MPH (6 knots; 3.1 m/s)
Visibility: 6 miles ( 9 km)
Ceiling: 3400 feet AGL
Clouds: scattered clouds at 700 feet AGL
overcast cloud deck at 3400 feet AGL
Weather: no significant weather observed at this time

METAR text: UKKK 160830Z 14003MPS 110V180 8000 SCT005 OVC017 08/07 Q1025 R08/290058 NOSIG
Conditions at: UKKK (KIEV/ZHYLIANY , UA) observed 0830 UTC 16 November 2019
Temperature: 8.0°C (46°F)
Dewpoint: 7.0°C (45°F) [RH = 93%]
Pressure (altimeter): 30.27 inches Hg (1025.0 mb)
Winds: from the SE (140 degrees) at 7 MPH (6 knots; 3.1 m/s)
Visibility: 5 miles ( 8 km)
Ceiling: 1700 feet AGL
Clouds: scattered clouds at 500 feet AGL
overcast cloud deck at 1700 feet AGL
Weather: no significant weather observed at this time

METAR text: UKKK 160800Z 13003MPS 100V160 8000 SCT005 OVC014 08/07 Q1025 R08/290058 NOSIG
Conditions at: UKKK (KIEV/ZHYLIANY , UA) observed 0800 UTC 16 November 2019
Temperature: 8.0°C (46°F)
Dewpoint: 7.0°C (45°F) [RH = 93%]
Pressure (altimeter): 30.27 inches Hg (1025.0 mb)
Winds: from the SE (130 degrees) at 7 MPH (6 knots; 3.1 m/s)
Visibility: 5 miles ( 8 km)
Ceiling: 1400 feet AGL
Clouds: scattered clouds at 500 feet AGL
overcast cloud deck at 1400 feet AGL
Weather: no significant weather observed at this time

Forecast for: UKKK (KIEV/ZHYLIANY , UA)
Text: TAF UKKK 171702Z 1718/1818 12003G08MPS 0300 FG VV001 TX08/1812Z TN03/1805Z
Forecast period: 1800 UTC 17 November 2019 to 0800 UTC 18 November 2019
Forecast type: FROM: standard forecast or significant change
Winds: from the ESE (120 degrees) at 7 MPH (6 knots; 3.1 m/s)
gusting to 18 MPH (16 knots; 8.2 m/s)
Visibility: 0.19 miles (0.31 km)
Ceiling: indefinite ceiling with vertical visibility of 100 feet AGL
Clouds: obscured sky
Weather: FG  (fog)
Text: TEMPO 1718/1807 1200 -DZ BR OVC003
Forecast period: 1800 UTC 17 November 2019 to 0700 UTC 18 November 2019
Forecast type: TEMPORARY: The following changes expected for less than half the time period
Visibility: 0.75 miles (1.21 km)
Ceiling: 300 feet AGL
Clouds: overcast cloud deck at 300 feet AGL
Weather: -DZ BR  (light drizzle, mist)
Text: BECMG 1808/0810 14004G09MPS 4000 BR OVC007
Forecast period: 0800 to 1800 UTC 18 November 2019
Forecast type: BECOMING: Conditions expected to become as follows by 1000 UTC 08 November 2019
Winds: from the SE (140 degrees) at 9 MPH (8 knots; 4.1 m/s)
gusting to 20 MPH (17 knots; 8.7 m/s)
Visibility: 2.49 miles (4.01 km)
Ceiling: 700 feet AGL
Clouds: overcast cloud deck at 700 feet AGL
Weather: BR  (mist)